createdAt,value
2022-07-30T00:01:52.673Z,67.67
2022-07-30T00:04:19.984Z,67.63
2022-07-30T00:06:46.718Z,67.85
2022-07-30T00:09:13.466Z,68.15
2022-07-30T00:11:40.062Z,68.13
2022-07-30T00:14:06.726Z,70.41
2022-07-30T00:16:33.482Z,67.88
2022-07-30T00:19:00.185Z,70.53
2022-07-30T00:21:35.773Z,70.48
2022-07-30T00:24:03.753Z,69.18
2022-07-30T00:26:30.504Z,71.09
2022-07-30T00:28:57.155Z,68.72
2022-07-30T00:31:23.768Z,69.96
2022-07-30T00:33:50.425Z,72.20
2022-07-30T00:36:17.054Z,70.47
2022-07-30T00:38:43.693Z,69.92
2022-07-30T00:41:10.345Z,72.11
2022-07-30T00:43:37.040Z,71.51
2022-07-30T00:46:03.725Z,71.70
2022-07-30T00:48:30.970Z,69.85
2022-07-30T00:50:57.686Z,70.44
2022-07-30T00:53:24.359Z,72.18
2022-07-30T00:55:51.031Z,71.73
2022-07-30T00:58:17.651Z,71.72
2022-07-30T01:00:44.437Z,70.88
2022-07-30T01:03:11.089Z,72.47
2022-07-30T01:05:37.863Z,70.76
2022-07-30T01:08:04.671Z,74.55
2022-07-30T01:10:31.278Z,74.89
2022-07-30T01:12:59.232Z,72.37
2022-07-30T01:15:26.044Z,73.21
2022-07-30T01:17:56.903Z,71.91
2022-07-30T01:20:30.170Z,73.27
2022-07-30T01:23:25.321Z,72.92
2022-07-30T01:25:56.278Z,73.81
2022-07-30T01:28:31.323Z,71.96
2022-07-30T01:30:59.608Z,73.91
2022-07-30T01:33:27.866Z,72.83
2022-07-30T01:35:56.902Z,74.30
2022-07-30T01:38:25.523Z,73.71
2022-07-30T01:40:53.389Z,74.54
2022-07-30T01:43:22.014Z,73.98
2022-07-30T01:45:50.272Z,73.86
2022-07-30T01:48:20.078Z,72.59
2022-07-30T01:50:53.237Z,72.64
2022-07-30T01:53:25.778Z,72.69
2022-07-30T01:55:55.119Z,74.00
2022-07-30T01:58:27.940Z,73.05
2022-07-30T02:00:58.906Z,73.14
2022-07-30T02:03:29.610Z,73.40
2022-07-30T02:06:00.701Z,75.63
2022-07-30T02:08:48.619Z,75.53
2022-07-30T02:11:37.520Z,73.95
2022-07-30T02:14:14.404Z,73.88
2022-07-30T02:16:44.620Z,74.85
2022-07-30T02:19:14.886Z,75.21
2022-07-30T02:21:50.587Z,75.48
2022-07-30T02:24:21.851Z,75.37
2022-07-30T02:26:52.096Z,74.55
2022-07-30T02:29:21.780Z,74.99
2022-07-30T02:31:48.765Z,75.48
2022-07-30T02:34:16.913Z,77.91
2022-07-30T02:36:45.677Z,76.45
2022-07-30T02:39:14.791Z,77.25
2022-07-30T02:41:49.542Z,76.75
2022-07-30T02:44:19.480Z,77.20
2022-07-30T02:46:48.394Z,76.56
2022-07-30T02:49:22.387Z,76.29
2022-07-30T02:51:50.789Z,75.35
2022-07-30T02:54:19.530Z,76.66
2022-07-30T02:56:49.519Z,77.39
2022-07-30T02:59:19.944Z,76.57
2022-07-30T03:01:48.069Z,76.53
2022-07-30T03:04:18.822Z,76.56
2022-07-30T03:06:45.775Z,78.70
2022-07-30T03:09:16.866Z,77.60
2022-07-30T03:11:44.708Z,76.42
2022-07-30T03:14:12.037Z,77.11
2022-07-30T03:16:42.172Z,75.93
2022-07-30T03:19:11.009Z,76.85
2022-07-30T03:21:41.402Z,79.72
2022-07-30T03:24:10.136Z,77.41
2022-07-30T03:26:39.066Z,77.36
2022-07-30T03:29:08.667Z,78.54
2022-07-30T03:31:39.791Z,77.92
2022-07-30T03:34:08.891Z,79.56
2022-07-30T03:36:36.413Z,76.99
2022-07-30T03:39:05.433Z,78.94
2022-07-30T03:41:32.927Z,77.99
2022-07-30T03:44:01.148Z,76.73
2022-07-30T03:46:28.319Z,76.78
2022-07-30T03:48:57.091Z,79.12
2022-07-30T03:51:24.768Z,79.16
2022-07-30T03:53:52.940Z,78.70
2022-07-30T03:56:38.696Z,78.19
2022-07-30T03:59:08.438Z,78.39
2022-07-30T04:01:38.708Z,78.16
2022-07-30T04:04:11.459Z,79.16
2022-07-30T04:06:40.158Z,78.00
2022-07-30T04:09:08.278Z,80.73
2022-07-30T04:11:40.605Z,77.68
2022-07-30T04:14:10.888Z,79.33
2022-07-30T04:16:50.386Z,78.14
2022-07-30T04:19:43.609Z,77.94
2022-07-30T04:22:13.066Z,76.09
2022-07-30T04:24:42.198Z,74.76
2022-07-30T04:27:09.493Z,75.49
2022-07-30T04:29:36.450Z,75.47
2022-07-30T04:32:03.399Z,75.02
2022-07-30T04:34:30.001Z,74.57
2022-07-30T04:36:57.092Z,74.35
2022-07-30T04:39:23.763Z,74.35
2022-07-30T04:41:51.213Z,74.51
2022-07-30T04:44:32.252Z,76.46
2022-07-30T04:47:18.221Z,76.15
2022-07-30T04:49:57.659Z,74.26
2022-07-30T04:52:25.082Z,74.92
2022-07-30T04:54:56.404Z,74.69
2022-07-30T04:57:24.647Z,74.14
2022-07-30T04:59:51.520Z,74.13
2022-07-30T05:02:20.800Z,73.10
2022-07-30T05:04:48.973Z,73.43
2022-07-30T05:07:18.012Z,74.24
2022-07-30T05:09:49.530Z,72.99
2022-07-30T05:12:16.268Z,72.60
2022-07-30T05:14:47.893Z,73.09
2022-07-30T05:17:15.505Z,73.11
2022-07-30T05:19:42.100Z,72.90
2022-07-30T05:22:08.779Z,72.38
2022-07-30T05:24:35.446Z,72.59
2022-07-30T05:27:02.467Z,71.96
2022-07-30T05:29:29.510Z,71.57
2022-07-30T05:32:07.390Z,71.35
2022-07-30T05:34:35.125Z,71.08
2022-07-30T05:37:02.717Z,71.22
2022-07-30T05:39:30.160Z,70.41
2022-07-30T05:42:28.573Z,70.35
2022-07-30T05:44:57.645Z,70.50
2022-07-30T05:47:24.289Z,68.25
2022-07-30T05:49:51.332Z,67.07
2022-07-30T05:52:18.696Z,66.34
2022-07-30T05:54:45.527Z,65.46
2022-07-30T05:57:24.579Z,63.95
2022-07-30T05:59:52.772Z,63.19
2022-07-30T06:02:24.459Z,61.11
2022-07-30T06:04:57.283Z,60.58
2022-07-30T06:07:23.994Z,59.72
2022-07-30T06:09:52.834Z,59.29
2022-07-30T06:12:19.756Z,59.10
2022-07-30T06:14:46.740Z,58.76
2022-07-30T06:17:18.247Z,57.84
2022-07-30T06:20:05.616Z,58.36
2022-07-30T06:22:43.275Z,57.80
2022-07-30T06:25:18.741Z,57.19
2022-07-30T06:27:45.614Z,57.89
2022-07-30T06:30:13.252Z,57.02
2022-07-30T06:32:41.099Z,56.65
2022-07-30T06:35:08.175Z,57.03
2022-07-30T06:37:58.703Z,56.62
2022-07-30T06:40:24.590Z,56.14
2022-07-30T06:43:04.262Z,55.93
2022-07-30T06:45:42.634Z,55.46
2022-07-30T06:48:32.543Z,54.87
2022-07-30T06:51:01.716Z,54.97
2022-07-30T06:53:29.100Z,54.49
2022-07-30T06:56:14.835Z,53.99
2022-07-30T06:58:51.815Z,54.67
2022-07-30T07:01:37.059Z,53.94
2022-07-30T07:04:04.403Z,54.01
2022-07-30T07:06:32.856Z,53.28
2022-07-30T07:09:00.087Z,54.01
2022-07-30T07:11:53.479Z,52.73
2022-07-30T07:14:20.219Z,54.09
2022-07-30T07:16:49.316Z,53.68
2022-07-30T07:20:00.198Z,54.43
2022-07-30T07:22:26.489Z,53.69
2022-07-30T07:24:53.421Z,53.67
2022-07-30T07:27:24.889Z,53.31
2022-07-30T07:30:01.815Z,52.94
2022-07-30T07:32:35.207Z,52.47
2022-07-30T07:35:02.685Z,52.62
2022-07-30T07:37:29.806Z,52.46
2022-07-30T07:39:56.511Z,51.93
2022-07-30T07:42:23.586Z,52.63
2022-07-30T07:44:50.835Z,52.07
2022-07-30T07:47:18.183Z,51.75
2022-07-30T07:49:58.218Z,51.71
2022-07-30T07:52:24.912Z,52.09
2022-07-30T07:54:51.529Z,50.96
2022-07-30T07:57:18.160Z,50.43
2022-07-30T07:59:47.120Z,50.13
2022-07-30T08:02:21.409Z,50.18
2022-07-30T08:05:03.790Z,49.78
2022-07-30T08:07:48.993Z,49.74
2022-07-30T08:10:44.203Z,48.89
2022-07-30T08:13:51.347Z,47.95
2022-07-30T08:16:54.385Z,48.02
2022-07-30T08:19:46.329Z,47.19
2022-07-30T08:22:18.817Z,47.36
2022-07-30T08:24:45.591Z,47.06
2022-07-30T08:27:12.502Z,46.96
2022-07-30T08:29:39.251Z,46.88
2022-07-30T08:32:06.261Z,47.18
2022-07-30T08:34:35.936Z,46.00
2022-07-30T08:37:03.671Z,46.92
2022-07-30T08:39:30.533Z,45.97
2022-07-30T08:41:58.418Z,45.42
2022-07-30T08:44:26.521Z,44.97
2022-07-30T08:46:56.326Z,45.31
2022-07-30T08:49:43.977Z,45.24
2022-07-30T08:52:11.213Z,44.60
2022-07-30T08:54:41.337Z,44.34
2022-07-30T08:57:08.426Z,43.69
2022-07-30T08:59:59.445Z,43.22
2022-07-30T09:02:29.214Z,45.17
2022-07-30T09:05:06.588Z,44.52
2022-07-30T09:07:34.562Z,42.78
2022-07-30T09:10:03.722Z,42.54
2022-07-30T09:12:31.468Z,43.15
2022-07-30T09:15:12.132Z,43.20
2022-07-30T09:17:58.327Z,43.00
2022-07-30T09:20:30.945Z,45.60
2022-07-30T09:23:04.446Z,46.53
2022-07-30T09:25:48.256Z,46.97
2022-07-30T09:28:34.639Z,44.49
2022-07-30T09:31:13.587Z,41.61
2022-07-30T09:33:58.692Z,43.34
2022-07-30T09:36:44.191Z,44.89
2022-07-30T09:39:42.397Z,44.42
2022-07-30T09:42:29.129Z,41.47
2022-07-30T09:45:10.173Z,38.53
2022-07-30T09:47:44.658Z,38.58
2022-07-30T09:50:29.393Z,37.94
2022-07-30T09:53:08.901Z,40.08
2022-07-30T09:58:39.989Z,41.15
2022-07-30T10:01:12.816Z,38.84
2022-07-30T10:03:58.164Z,37.96
2022-07-30T10:06:35.725Z,39.21
2022-07-30T10:09:24.160Z,38.98
2022-07-30T10:11:56.170Z,39.56
2022-07-30T10:14:32.278Z,38.66
2022-07-30T10:17:01.409Z,38.33
2022-07-30T10:19:39.924Z,37.75
2022-07-30T10:22:27.936Z,36.83
2022-07-30T10:25:20.733Z,36.03
2022-07-30T10:28:09.338Z,36.25
2022-07-30T10:30:37.009Z,36.55
2022-07-30T10:33:04.998Z,35.67
2022-07-30T10:35:37.972Z,35.88
2022-07-30T10:38:09.312Z,38.35
2022-07-30T10:41:01.687Z,37.97
2022-07-30T10:43:45.404Z,37.04
2022-07-30T10:46:27.563Z,36.41
2022-07-30T10:48:55.638Z,37.15
2022-07-30T10:51:43.522Z,34.96
2022-07-30T10:54:42.662Z,35.76
2022-07-30T10:57:31.772Z,35.45
2022-07-30T10:59:59.851Z,35.35
2022-07-30T11:02:31.452Z,35.27
2022-07-30T11:05:17.801Z,35.11
2022-07-30T11:07:47.403Z,34.85
2022-07-30T11:10:40.617Z,35.02
2022-07-30T11:13:10.735Z,35.19
2022-07-30T11:16:00.502Z,36.21
2022-07-30T11:18:28.757Z,34.92
2022-07-30T11:21:22.540Z,35.35
2022-07-30T11:23:49.606Z,35.69
2022-07-30T11:26:41.176Z,36.54
2022-07-30T11:29:34.974Z,38.09
2022-07-30T11:32:25.555Z,36.15
2022-07-30T11:34:53.481Z,35.84
2022-07-30T11:37:22.192Z,35.55
2022-07-30T11:39:56.213Z,35.03
2022-07-30T11:42:35.159Z,35.08
2022-07-30T11:45:17.111Z,35.48
2022-07-30T11:47:48.961Z,34.72
2022-07-30T11:50:20.748Z,35.05
2022-07-30T11:53:07.902Z,35.05
2022-07-30T11:55:38.989Z,33.39
2022-07-30T11:58:08.696Z,34.34
2022-07-30T12:00:40.998Z,32.62
2022-07-30T12:03:29.904Z,32.02
2022-07-30T12:05:56.800Z,32.40
2022-07-30T12:08:31.670Z,33.56
2022-07-30T12:11:03.385Z,33.39
2022-07-30T12:13:43.969Z,33.74
2022-07-30T12:16:16.838Z,33.92
2022-07-30T12:18:44.333Z,33.82
2022-07-30T12:21:12.741Z,33.13
2022-07-30T12:23:41.977Z,33.85
2022-07-30T12:26:08.796Z,32.72
2022-07-30T12:28:36.033Z,31.07
2022-07-30T12:31:04.364Z,32.19
2022-07-30T12:33:31.639Z,32.64
2022-07-30T12:36:00.475Z,32.50
2022-07-30T12:38:28.692Z,32.05
2022-07-30T12:40:55.280Z,32.74
2022-07-30T12:43:46.643Z,32.03
2022-07-30T12:46:24.588Z,32.66
2022-07-30T12:49:01.183Z,32.93
2022-07-30T12:51:52.305Z,32.42
2022-07-30T12:54:26.456Z,32.62
2022-07-30T12:57:11.211Z,33.14
2022-07-30T12:59:38.629Z,33.64
2022-07-30T13:02:05.368Z,33.66
2022-07-30T13:04:34.133Z,32.40
2022-07-30T13:07:04.203Z,32.25
2022-07-30T13:09:31.108Z,31.45
2022-07-30T13:11:57.888Z,31.85
2022-07-30T13:14:26.731Z,32.18
2022-07-30T13:16:55.930Z,32.60
2022-07-30T13:19:22.927Z,31.69
2022-07-30T13:21:50.204Z,32.20
2022-07-30T13:24:20.484Z,31.91
2022-07-30T13:26:47.356Z,31.75
2022-07-30T13:29:17.666Z,31.69
2022-07-30T13:31:44.338Z,32.52
2022-07-30T13:34:11.987Z,33.39
2022-07-30T13:36:38.944Z,33.03
2022-07-30T13:39:05.526Z,32.81
2022-07-30T13:41:33.237Z,32.07
2022-07-30T13:43:59.977Z,32.26
2022-07-30T13:46:26.755Z,32.25
2022-07-30T13:48:53.581Z,33.08
2022-07-30T13:51:20.471Z,32.98
2022-07-30T13:53:47.134Z,33.03
2022-07-30T13:56:13.764Z,32.50
2022-07-30T13:58:42.326Z,33.15
2022-07-30T14:01:10.265Z,31.72
2022-07-30T14:03:48.776Z,32.67
2022-07-30T14:06:17.197Z,32.01
2022-07-30T14:08:43.842Z,31.21
2022-07-30T14:11:10.490Z,31.68
2022-07-30T14:13:37.930Z,31.80
2022-07-30T14:16:13.827Z,31.10
2022-07-30T14:18:44.809Z,30.59
2022-07-30T14:21:11.450Z,30.52
2022-07-30T14:23:38.051Z,30.08
2022-07-30T14:26:04.787Z,30.16
2022-07-30T14:28:31.472Z,30.49
2022-07-30T14:30:58.098Z,29.74
2022-07-30T14:33:24.781Z,29.48
2022-07-30T14:35:51.415Z,29.43
2022-07-30T14:38:18.049Z,28.70
2022-07-30T14:40:45.008Z,28.16
2022-07-30T14:43:11.694Z,27.88
2022-07-30T14:45:39.254Z,27.96
2022-07-30T14:48:06.197Z,27.98
2022-07-30T14:50:32.978Z,27.80
2022-07-30T14:52:59.651Z,27.46
2022-07-30T14:55:26.374Z,27.27
2022-07-30T14:57:52.981Z,26.95
2022-07-30T15:00:19.752Z,27.09
2022-07-30T15:02:47.977Z,27.56
2022-07-30T15:05:14.700Z,27.59
2022-07-30T15:07:41.323Z,27.21
2022-07-30T15:10:08.586Z,27.48
2022-07-30T15:12:35.498Z,28.56
2022-07-30T15:15:05.352Z,29.22
2022-07-30T15:17:35.076Z,28.23
2022-07-30T15:20:01.660Z,28.49
2022-07-30T15:22:28.272Z,28.63
2022-07-30T15:24:54.890Z,28.94
2022-07-30T15:27:24.784Z,28.94
2022-07-30T15:30:00.159Z,29.40
2022-07-30T15:32:26.802Z,29.90
2022-07-30T15:34:58.645Z,29.86
2022-07-30T15:37:25.817Z,29.78
2022-07-30T15:39:52.481Z,30.09
2022-07-30T15:42:19.140Z,30.58
2022-07-30T15:44:49.090Z,30.23
2022-07-30T15:47:15.932Z,30.55
2022-07-30T15:49:42.531Z,31.35
2022-07-30T15:52:09.143Z,31.56
2022-07-30T15:54:35.929Z,31.73
2022-07-30T15:57:02.591Z,32.06
2022-07-30T15:59:30.123Z,32.33
2022-07-30T16:01:57.300Z,32.75
2022-07-30T16:04:31.823Z,33.13
2022-07-30T16:07:00.978Z,32.94
2022-07-30T16:09:28.021Z,32.70
2022-07-30T16:12:03.455Z,33.08
2022-07-30T16:14:30.250Z,33.14
2022-07-30T16:16:56.938Z,33.60
2022-07-30T16:19:23.596Z,33.22
2022-07-30T16:21:50.207Z,33.26
2022-07-30T16:24:17.129Z,33.08
2022-07-30T16:26:43.845Z,33.08
2022-07-30T16:29:13.684Z,33.96
2022-07-30T16:31:40.725Z,34.06
2022-07-30T16:34:07.455Z,34.75
2022-07-30T16:36:34.206Z,34.29
2022-07-30T16:39:01.355Z,34.25
2022-07-30T16:41:27.989Z,34.10
2022-07-30T16:43:54.633Z,34.26
2022-07-30T16:46:21.220Z,34.16
2022-07-30T16:48:47.953Z,34.25
2022-07-30T16:51:17.447Z,34.36
2022-07-30T16:53:44.193Z,35.19
2022-07-30T16:56:11.055Z,35.23
2022-07-30T16:58:37.696Z,35.57
2022-07-30T17:01:04.454Z,35.97
2022-07-30T17:03:31.294Z,36.21
2022-07-30T17:05:57.927Z,36.19
2022-07-30T17:08:25.384Z,35.99
2022-07-30T17:10:53.536Z,35.71
2022-07-30T17:13:20.771Z,35.33
2022-07-30T17:15:47.692Z,35.26
2022-07-30T17:18:14.778Z,35.38
2022-07-30T17:20:41.485Z,35.52
2022-07-30T17:23:08.566Z,35.67
2022-07-30T17:25:35.207Z,36.12
2022-07-30T17:28:01.996Z,36.14
2022-07-30T17:30:29.535Z,36.50
2022-07-30T17:32:56.790Z,36.32
2022-07-30T17:35:24.806Z,36.42
2022-07-30T17:37:52.012Z,36.40
2022-07-30T17:40:28.903Z,36.69
2022-07-30T17:43:04.815Z,36.97
2022-07-30T17:45:36.125Z,36.95
2022-07-30T17:48:04.146Z,37.02
2022-07-30T17:50:33.096Z,37.37
2022-07-30T17:53:03.253Z,37.66
2022-07-30T17:55:31.183Z,37.52
2022-07-30T17:57:57.775Z,37.27
2022-07-30T18:00:24.460Z,37.01
2022-07-30T18:02:51.064Z,36.57
2022-07-30T18:05:17.766Z,36.60
2022-07-30T18:07:44.844Z,36.86
2022-07-30T18:10:12.712Z,36.63
2022-07-30T18:12:50.539Z,36.65
2022-07-30T18:15:28.715Z,36.31
2022-07-30T18:18:02.691Z,36.63
2022-07-30T18:20:30.870Z,37.19
2022-07-30T18:22:57.454Z,37.28
2022-07-30T18:25:26.494Z,37.73
2022-07-30T18:27:53.864Z,37.84
2022-07-30T18:30:20.644Z,38.38
2022-07-30T18:32:47.359Z,38.06
2022-07-30T18:35:15.293Z,38.60
2022-07-30T18:37:43.733Z,38.50
2022-07-30T18:40:12.351Z,38.83
2022-07-30T18:42:39.063Z,38.80
2022-07-30T18:45:06.397Z,39.06
2022-07-30T18:47:33.002Z,39.76
2022-07-30T18:49:59.714Z,39.83
2022-07-30T18:52:26.563Z,39.98
2022-07-30T18:54:53.227Z,40.44
2022-07-30T18:57:19.923Z,40.72
2022-07-30T18:59:46.540Z,40.46
2022-07-30T19:02:13.151Z,41.17
2022-07-30T19:04:39.876Z,41.47
2022-07-30T19:07:07.277Z,41.29
2022-07-30T19:09:34.096Z,41.45
2022-07-30T19:12:01.064Z,41.41
2022-07-30T19:14:28.155Z,42.50
2022-07-30T19:16:54.760Z,42.73
2022-07-30T19:19:26.377Z,43.17
2022-07-30T19:21:52.988Z,43.47
2022-07-30T19:24:19.637Z,43.17
2022-07-30T19:26:46.276Z,43.01
2022-07-30T19:29:13.019Z,43.46
2022-07-30T19:31:41.670Z,43.18
2022-07-30T19:34:10.732Z,42.98
2022-07-30T19:36:38.226Z,43.29
2022-07-30T19:39:07.214Z,43.20
2022-07-30T19:41:40.537Z,43.22
2022-07-30T19:44:09.058Z,43.55
2022-07-30T19:46:36.407Z,44.13
2022-07-30T19:49:03.535Z,44.62
2022-07-30T19:52:07.456Z,45.00
2022-07-30T19:54:20.514Z,45.51
2022-07-30T19:56:48.527Z,45.26
2022-07-30T19:59:15.332Z,45.43
2022-07-30T20:01:43.240Z,46.46
2022-07-30T20:04:11.288Z,46.09
2022-07-30T20:06:39.938Z,47.04
2022-07-30T20:09:15.018Z,47.17
2022-07-30T20:11:57.886Z,47.90
2022-07-30T20:14:24.869Z,47.67
2022-07-30T20:16:51.476Z,48.47
2022-07-30T20:19:19.262Z,48.71
2022-07-30T20:21:56.717Z,48.95
2022-07-30T20:24:33.600Z,49.00
2022-07-30T20:27:01.734Z,49.31
2022-07-30T20:29:48.434Z,49.38
2022-07-30T20:32:15.067Z,50.14
2022-07-30T20:34:43.567Z,50.29
2022-07-30T20:37:15.090Z,50.89
2022-07-30T20:39:49.452Z,50.93
2022-07-30T20:42:16.574Z,52.46
2022-07-30T20:44:50.544Z,52.60
2022-07-30T20:47:37.440Z,52.38
2022-07-30T20:50:09.673Z,53.70
2022-07-30T20:52:39.393Z,53.77
2022-07-30T20:55:14.422Z,54.46
2022-07-30T20:57:57.322Z,53.03
2022-07-30T21:00:27.963Z,53.71
2022-07-30T21:02:54.534Z,53.99
2022-07-30T21:05:21.551Z,54.01
2022-07-30T21:07:48.209Z,55.45
2022-07-30T21:10:20.048Z,54.19
2022-07-30T21:12:53.103Z,56.74
2022-07-30T21:15:25.358Z,56.28
2022-07-30T21:17:53.030Z,56.05
2022-07-30T21:20:26.578Z,56.19
2022-07-30T21:22:56.190Z,55.67
2022-07-30T21:25:32.235Z,56.24
2022-07-30T21:28:00.704Z,56.70
2022-07-30T21:30:29.900Z,57.96
2022-07-30T21:32:56.723Z,56.68
2022-07-30T21:35:23.464Z,56.99
2022-07-30T21:37:50.089Z,57.26
2022-07-30T21:40:19.076Z,57.79
2022-07-30T21:42:51.561Z,57.89
2022-07-30T21:45:19.844Z,57.87
2022-07-30T21:47:47.567Z,58.00
2022-07-30T21:50:15.950Z,58.56
2022-07-30T21:52:43.945Z,58.19
2022-07-30T21:57:58.333Z,57.86
2022-07-30T22:00:46.255Z,58.58
2022-07-30T22:06:03.600Z,58.11
2022-07-30T22:08:30.904Z,58.48
2022-07-30T22:10:59.424Z,59.38
2022-07-30T22:13:26.429Z,58.15
2022-07-30T22:15:56.609Z,58.30
2022-07-30T22:18:24.423Z,58.51
2022-07-30T22:20:53.002Z,58.60
2022-07-30T22:23:20.623Z,59.14
2022-07-30T22:25:48.096Z,59.60
2022-07-30T22:28:16.876Z,59.58
2022-07-30T22:30:43.722Z,60.75
2022-07-30T22:33:20.068Z,60.53
2022-07-30T22:35:49.667Z,59.29
2022-07-30T22:38:17.336Z,60.50
2022-07-30T22:40:46.777Z,59.97
2022-07-30T22:43:13.965Z,59.25
2022-07-30T22:45:48.508Z,59.17
2022-07-30T22:48:16.341Z,59.65
2022-07-30T22:50:43.046Z,60.00
2022-07-30T22:53:56.515Z,60.80
2022-07-30T22:55:58.648Z,60.82
2022-07-30T22:58:26.352Z,59.31
2022-07-30T23:00:53.360Z,58.75
2022-07-30T23:03:20.331Z,58.95
2022-07-30T23:05:55.186Z,58.99
2022-07-30T23:08:29.547Z,58.97
2022-07-30T23:10:56.402Z,60.20
2022-07-30T23:12:27.819Z,57.65
2022-07-30T23:12:31.543Z,57.94
2022-07-30T23:13:23.137Z,59.77
2022-07-30T23:15:49.777Z,59.91
2022-07-30T23:18:16.401Z,60.03
2022-07-30T23:20:43.083Z,60.21
2022-07-30T23:23:11.521Z,60.83
2022-07-30T23:25:39.360Z,61.24
2022-07-30T23:28:06.597Z,61.72
2022-07-30T23:30:34.433Z,62.16
2022-07-30T23:33:02.215Z,62.06
2022-07-30T23:35:28.820Z,61.90
2022-07-30T23:37:55.479Z,61.98
2022-07-30T23:40:22.444Z,63.42
2022-07-30T23:42:50.919Z,63.27
2022-07-30T23:45:18.287Z,63.45
2022-07-30T23:47:55.955Z,64.93
2022-07-30T23:50:29.766Z,63.62
2022-07-30T23:52:56.405Z,63.75
2022-07-30T23:55:23.187Z,63.38
2022-07-30T23:57:49.854Z,63.25
